sensor_id;sensor_type;location;lat;lon;timestamp;temperature;humidity
46676;DHT22;32412;51.478;5.694;2023-06-10T00:00:43;21.70;99.90
46676;DHT22;32412;51.478;5.694;2023-06-10T00:03:09;21.60;99.90
46676;DHT22;32412;51.478;5.694;2023-06-10T00:05:35;21.60;99.90
46676;DHT22;32412;51.478;5.694;2023-06-10T00:08:04;21.50;99.90
46676;DHT22;32412;51.478;5.694;2023-06-10T00:10:36;21.50;99.90
46676;DHT22;32412;51.478;5.694;2023-06-10T00:13:03;21.40;99.90
46676;DHT22;32412;51.478;5.694;2023-06-10T00:15:30;21.40;99.90
46676;DHT22;32412;51.478;5.694;2023-06-10T00:17:57;21.30;99.90
46676;DHT22;32412;51.478;5.694;2023-06-10T00:20:23;21.30;99.90
46676;DHT22;32412;51.478;5.694;2023-06-10T00:22:49;21.20;99.90
46676;DHT22;32412;51.478;5.694;2023-06-10T00:25:15;21.20;99.90
46676;DHT22;32412;51.478;5.694;2023-06-10T00:27:41;21.20;99.90
46676;DHT22;32412;51.478;5.694;2023-06-10T00:30:07;21.20;99.90
46676;DHT22;32412;51.478;5.694;2023-06-10T00:32:34;21.10;99.90
46676;DHT22;32412;51.478;5.694;2023-06-10T00:35:00;21.10;99.90
46676;DHT22;32412;51.478;5.694;2023-06-10T00:37:25;21.10;99.90
46676;DHT22;32412;51.478;5.694;2023-06-10T00:39:51;21.10;99.90
46676;DHT22;32412;51.478;5.694;2023-06-10T00:42:17;21.00;99.90
46676;DHT22;32412;51.478;5.694;2023-06-10T00:44:42;21.00;99.90
46676;DHT22;32412;51.478;5.694;2023-06-10T00:47:08;20.90;99.90
46676;DHT22;32412;51.478;5.694;2023-06-10T00:49:34;20.80;99.90
46676;DHT22;32412;51.478;5.694;2023-06-10T00:52:01;20.70;99.90
46676;DHT22;32412;51.478;5.694;2023-06-10T00:54:27;20.70;99.90
46676;DHT22;32412;51.478;5.694;2023-06-10T00:56:53;20.60;99.90
46676;DHT22;32412;51.478;5.694;2023-06-10T00:59:20;20.50;99.90
46676;DHT22;32412;51.478;5.694;2023-06-10T01:01:46;20.50;99.90
46676;DHT22;32412;51.478;5.694;2023-06-10T01:04:14;20.40;99.90
46676;DHT22;32412;51.478;5.694;2023-06-10T01:06:57;20.40;99.90
46676;DHT22;32412;51.478;5.694;2023-06-10T01:12:10;20.20;99.90
46676;DHT22;32412;51.478;5.694;2023-06-10T01:14:37;20.20;99.90
46676;DHT22;32412;51.478;5.694;2023-06-10T01:17:04;20.10;99.90
46676;DHT22;32412;51.478;5.694;2023-06-10T01:19:31;20.10;99.90
46676;DHT22;32412;51.478;5.694;2023-06-10T01:21:57;20.00;99.90
46676;DHT22;32412;51.478;5.694;2023-06-10T01:24:26;19.90;99.90
46676;DHT22;32412;51.478;5.694;2023-06-10T01:26:54;19.90;99.90
46676;DHT22;32412;51.478;5.694;2023-06-10T01:29:46;19.90;99.90
46676;DHT22;32412;51.478;5.694;2023-06-10T01:32:33;19.80;99.90
46676;DHT22;32412;51.478;5.694;2023-06-10T01:35:00;19.70;99.90
46676;DHT22;32412;51.478;5.694;2023-06-10T01:37:27;19.60;99.90
46676;DHT22;32412;51.478;5.694;2023-06-10T01:39:55;19.60;99.90
46676;DHT22;32412;51.478;5.694;2023-06-10T01:42:23;19.60;99.90
46676;DHT22;32412;51.478;5.694;2023-06-10T01:44:49;19.60;99.90
46676;DHT22;32412;51.478;5.694;2023-06-10T01:47:14;19.60;99.90
46676;DHT22;32412;51.478;5.694;2023-06-10T01:49:40;19.50;99.90
46676;DHT22;32412;51.478;5.694;2023-06-10T01:52:06;19.50;99.90
46676;DHT22;32412;51.478;5.694;2023-06-10T01:54:32;19.40;99.90
46676;DHT22;32412;51.478;5.694;2023-06-10T01:57:00;19.30;99.90
46676;DHT22;32412;51.478;5.694;2023-06-10T01:59:26;19.30;99.90
46676;DHT22;32412;51.478;5.694;2023-06-10T02:01:52;19.20;99.90
46676;DHT22;32412;51.478;5.694;2023-06-10T02:04:17;19.20;99.90
46676;DHT22;32412;51.478;5.694;2023-06-10T02:06:43;19.20;99.90
46676;DHT22;32412;51.478;5.694;2023-06-10T02:09:10;19.20;99.90
46676;DHT22;32412;51.478;5.694;2023-06-10T02:11:36;19.10;99.90
46676;DHT22;32412;51.478;5.694;2023-06-10T02:14:03;19.10;99.90
46676;DHT22;32412;51.478;5.694;2023-06-10T02:16:28;19.00;99.90
46676;DHT22;32412;51.478;5.694;2023-06-10T02:18:54;19.00;99.90
46676;DHT22;32412;51.478;5.694;2023-06-10T02:21:20;19.00;99.90
46676;DHT22;32412;51.478;5.694;2023-06-10T02:23:45;18.90;99.90
46676;DHT22;32412;51.478;5.694;2023-06-10T02:26:11;18.80;99.90
46676;DHT22;32412;51.478;5.694;2023-06-10T02:28:37;18.80;99.90
46676;DHT22;32412;51.478;5.694;2023-06-10T02:31:02;18.80;99.90
46676;DHT22;32412;51.478;5.694;2023-06-10T02:33:28;18.70;99.90
46676;DHT22;32412;51.478;5.694;2023-06-10T02:35:55;18.60;99.90
46676;DHT22;32412;51.478;5.694;2023-06-10T02:38:21;18.60;99.90
46676;DHT22;32412;51.478;5.694;2023-06-10T02:40:47;18.60;99.90
46676;DHT22;32412;51.478;5.694;2023-06-10T02:43:12;18.60;99.90
46676;DHT22;32412;51.478;5.694;2023-06-10T02:45:38;18.60;99.90
46676;DHT22;32412;51.478;5.694;2023-06-10T02:48:04;18.60;99.90
46676;DHT22;32412;51.478;5.694;2023-06-10T02:50:29;18.60;99.90
46676;DHT22;32412;51.478;5.694;2023-06-10T02:52:55;18.50;99.90
46676;DHT22;32412;51.478;5.694;2023-06-10T02:55:21;18.50;99.90
46676;DHT22;32412;51.478;5.694;2023-06-10T02:57:46;18.50;99.90
46676;DHT22;32412;51.478;5.694;2023-06-10T03:00:12;18.40;99.90
46676;DHT22;32412;51.478;5.694;2023-06-10T03:02:39;18.40;99.90
46676;DHT22;32412;51.478;5.694;2023-06-10T03:05:06;18.30;99.90
46676;DHT22;32412;51.478;5.694;2023-06-10T03:07:36;18.30;99.90
46676;DHT22;32412;51.478;5.694;2023-06-10T03:10:06;18.30;99.90
46676;DHT22;32412;51.478;5.694;2023-06-10T03:12:32;18.20;99.90
46676;DHT22;32412;51.478;5.694;2023-06-10T03:14:57;18.20;99.90
46676;DHT22;32412;51.478;5.694;2023-06-10T03:17:23;18.20;99.90
46676;DHT22;32412;51.478;5.694;2023-06-10T03:19:49;18.10;99.90
46676;DHT22;32412;51.478;5.694;2023-06-10T03:22:16;18.10;99.90
46676;DHT22;32412;51.478;5.694;2023-06-10T03:24:42;18.10;99.90
46676;DHT22;32412;51.478;5.694;2023-06-10T03:27:12;18.00;99.90
46676;DHT22;32412;51.478;5.694;2023-06-10T03:29:39;18.10;99.90
46676;DHT22;32412;51.478;5.694;2023-06-10T03:32:05;18.00;99.90
46676;DHT22;32412;51.478;5.694;2023-06-10T03:34:31;18.00;99.90
46676;DHT22;32412;51.478;5.694;2023-06-10T03:36:57;17.90;99.90
46676;DHT22;32412;51.478;5.694;2023-06-10T03:39:23;18.00;99.90
46676;DHT22;32412;51.478;5.694;2023-06-10T03:41:49;18.00;99.90
46676;DHT22;32412;51.478;5.694;2023-06-10T03:44:15;18.00;99.90
46676;DHT22;32412;51.478;5.694;2023-06-10T03:46:41;18.00;99.90
46676;DHT22;32412;51.478;5.694;2023-06-10T03:49:06;18.00;99.90
46676;DHT22;32412;51.478;5.694;2023-06-10T03:51:32;18.00;99.90
46676;DHT22;32412;51.478;5.694;2023-06-10T03:53:58;17.90;99.90
46676;DHT22;32412;51.478;5.694;2023-06-10T03:56:23;17.90;99.90
46676;DHT22;32412;51.478;5.694;2023-06-10T03:58:49;17.90;99.90
46676;DHT22;32412;51.478;5.694;2023-06-10T04:01:15;17.90;99.90
46676;DHT22;32412;51.478;5.694;2023-06-10T04:03:40;17.90;99.90
46676;DHT22;32412;51.478;5.694;2023-06-10T04:06:07;17.90;99.90
46676;DHT22;32412;51.478;5.694;2023-06-10T04:08:33;17.90;99.90
46676;DHT22;32412;51.478;5.694;2023-06-10T04:10:59;17.90;99.90
46676;DHT22;32412;51.478;5.694;2023-06-10T04:13:24;18.00;99.90
46676;DHT22;32412;51.478;5.694;2023-06-10T04:15:50;18.00;99.90
46676;DHT22;32412;51.478;5.694;2023-06-10T04:18:16;18.10;99.90
46676;DHT22;32412;51.478;5.694;2023-06-10T04:20:42;18.10;99.90
46676;DHT22;32412;51.478;5.694;2023-06-10T04:23:09;18.10;99.90
46676;DHT22;32412;51.478;5.694;2023-06-10T04:25:35;18.10;99.90
46676;DHT22;32412;51.478;5.694;2023-06-10T04:28:01;18.20;99.90
46676;DHT22;32412;51.478;5.694;2023-06-10T04:30:26;18.20;99.90
46676;DHT22;32412;51.478;5.694;2023-06-10T04:32:52;18.20;99.90
46676;DHT22;32412;51.478;5.694;2023-06-10T04:35:17;18.30;99.90
46676;DHT22;32412;51.478;5.694;2023-06-10T04:37:43;18.30;99.90
46676;DHT22;32412;51.478;5.694;2023-06-10T04:40:09;18.30;99.90
46676;DHT22;32412;51.478;5.694;2023-06-10T04:42:35;18.40;99.90
46676;DHT22;32412;51.478;5.694;2023-06-10T04:45:01;18.40;99.90
46676;DHT22;32412;51.478;5.694;2023-06-10T04:47:29;18.50;99.90
46676;DHT22;32412;51.478;5.694;2023-06-10T04:49:58;18.60;99.90
46676;DHT22;32412;51.478;5.694;2023-06-10T04:52:24;18.60;99.90
46676;DHT22;32412;51.478;5.694;2023-06-10T04:54:51;18.60;99.90
46676;DHT22;32412;51.478;5.694;2023-06-10T04:57:16;18.70;99.90
46676;DHT22;32412;51.478;5.694;2023-06-10T04:59:42;18.70;99.90
46676;DHT22;32412;51.478;5.694;2023-06-10T05:02:08;18.80;99.90
46676;DHT22;32412;51.478;5.694;2023-06-10T05:04:33;18.80;99.90
46676;DHT22;32412;51.478;5.694;2023-06-10T05:06:59;18.90;99.90
46676;DHT22;32412;51.478;5.694;2023-06-10T05:09:25;18.90;99.90
46676;DHT22;32412;51.478;5.694;2023-06-10T05:11:51;19.00;99.90
46676;DHT22;32412;51.478;5.694;2023-06-10T05:14:19;19.00;99.90
46676;DHT22;32412;51.478;5.694;2023-06-10T05:16:47;19.10;99.90
46676;DHT22;32412;51.478;5.694;2023-06-10T05:19:13;19.20;99.90
46676;DHT22;32412;51.478;5.694;2023-06-10T05:21:38;19.20;99.90
46676;DHT22;32412;51.478;5.694;2023-06-10T05:24:04;19.20;99.90
46676;DHT22;32412;51.478;5.694;2023-06-10T05:26:30;19.30;99.90
46676;DHT22;32412;51.478;5.694;2023-06-10T05:28:57;19.40;99.90
46676;DHT22;32412;51.478;5.694;2023-06-10T05:31:24;19.40;99.90
46676;DHT22;32412;51.478;5.694;2023-06-10T05:33:49;19.50;99.90
46676;DHT22;32412;51.478;5.694;2023-06-10T05:36:15;19.60;99.90
46676;DHT22;32412;51.478;5.694;2023-06-10T05:38:40;19.70;99.90
46676;DHT22;32412;51.478;5.694;2023-06-10T05:41:06;19.80;99.90
46676;DHT22;32412;51.478;5.694;2023-06-10T05:43:32;19.90;99.90
46676;DHT22;32412;51.478;5.694;2023-06-10T05:45:57;20.00;99.90
46676;DHT22;32412;51.478;5.694;2023-06-10T05:48:23;20.10;99.90
46676;DHT22;32412;51.478;5.694;2023-06-10T05:50:49;20.20;99.90
46676;DHT22;32412;51.478;5.694;2023-06-10T05:53:15;20.20;99.90
46676;DHT22;32412;51.478;5.694;2023-06-10T05:55:44;20.30;99.90
46676;DHT22;32412;51.478;5.694;2023-06-10T05:58:11;20.40;99.90
46676;DHT22;32412;51.478;5.694;2023-06-10T06:00:38;20.50;99.90
46676;DHT22;32412;51.478;5.694;2023-06-10T06:03:06;20.50;99.90
46676;DHT22;32412;51.478;5.694;2023-06-10T06:05:33;20.60;99.90
46676;DHT22;32412;51.478;5.694;2023-06-10T06:08:01;20.60;99.90
46676;DHT22;32412;51.478;5.694;2023-06-10T06:10:27;20.80;99.90
46676;DHT22;32412;51.478;5.694;2023-06-10T06:12:52;20.70;99.90
46676;DHT22;32412;51.478;5.694;2023-06-10T06:15:18;20.70;99.90
46676;DHT22;32412;51.478;5.694;2023-06-10T06:17:44;20.80;99.90
46676;DHT22;32412;51.478;5.694;2023-06-10T06:20:10;20.90;99.90
46676;DHT22;32412;51.478;5.694;2023-06-10T06:22:36;21.00;99.90
46676;DHT22;32412;51.478;5.694;2023-06-10T06:25:01;21.10;99.90
46676;DHT22;32412;51.478;5.694;2023-06-10T06:27:28;21.20;99.90
46676;DHT22;32412;51.478;5.694;2023-06-10T06:29:53;21.30;99.90
46676;DHT22;32412;51.478;5.694;2023-06-10T06:32:19;21.40;99.90
46676;DHT22;32412;51.478;5.694;2023-06-10T06:34:46;21.50;99.90
46676;DHT22;32412;51.478;5.694;2023-06-10T06:37:11;21.60;99.90
46676;DHT22;32412;51.478;5.694;2023-06-10T06:39:37;21.70;99.90
46676;DHT22;32412;51.478;5.694;2023-06-10T06:42:03;21.70;99.90
46676;DHT22;32412;51.478;5.694;2023-06-10T06:44:28;21.70;99.90
46676;DHT22;32412;51.478;5.694;2023-06-10T06:46:54;21.90;99.90
46676;DHT22;32412;51.478;5.694;2023-06-10T06:49:19;22.10;99.90
46676;DHT22;32412;51.478;5.694;2023-06-10T06:51:45;22.20;99.90
46676;DHT22;32412;51.478;5.694;2023-06-10T06:54:11;22.20;99.90
46676;DHT22;32412;51.478;5.694;2023-06-10T06:56:37;22.30;99.90
46676;DHT22;32412;51.478;5.694;2023-06-10T06:59:03;22.30;99.90
46676;DHT22;32412;51.478;5.694;2023-06-10T07:01:30;22.60;99.90
46676;DHT22;32412;51.478;5.694;2023-06-10T07:03:55;22.80;99.90
46676;DHT22;32412;51.478;5.694;2023-06-10T07:06:21;22.90;99.90
46676;DHT22;32412;51.478;5.694;2023-06-10T07:08:46;23.00;99.90
46676;DHT22;32412;51.478;5.694;2023-06-10T07:11:12;23.10;99.90
46676;DHT22;32412;51.478;5.694;2023-06-10T07:13:38;23.20;99.90
46676;DHT22;32412;51.478;5.694;2023-06-10T07:16:03;23.50;99.90
46676;DHT22;32412;51.478;5.694;2023-06-10T07:18:29;23.70;99.90
46676;DHT22;32412;51.478;5.694;2023-06-10T07:20:55;23.80;99.90
46676;DHT22;32412;51.478;5.694;2023-06-10T07:23:20;23.80;99.90
46676;DHT22;32412;51.478;5.694;2023-06-10T07:25:46;23.80;99.90
46676;DHT22;32412;51.478;5.694;2023-06-10T07:28:12;23.80;99.90
46676;DHT22;32412;51.478;5.694;2023-06-10T07:30:37;23.90;99.90
46676;DHT22;32412;51.478;5.694;2023-06-10T07:33:03;24.00;99.90
46676;DHT22;32412;51.478;5.694;2023-06-10T07:35:31;24.00;99.90
46676;DHT22;32412;51.478;5.694;2023-06-10T07:37:56;24.00;99.90
46676;DHT22;32412;51.478;5.694;2023-06-10T07:40:22;24.30;99.90
46676;DHT22;32412;51.478;5.694;2023-06-10T07:42:47;24.40;99.90
46676;DHT22;32412;51.478;5.694;2023-06-10T07:45:13;24.40;99.90
46676;DHT22;32412;51.478;5.694;2023-06-10T07:47:39;24.50;99.90
46676;DHT22;32412;51.478;5.694;2023-06-10T07:50:05;24.50;99.90
46676;DHT22;32412;51.478;5.694;2023-06-10T07:52:30;24.50;99.90
46676;DHT22;32412;51.478;5.694;2023-06-10T07:54:56;24.50;99.90
46676;DHT22;32412;51.478;5.694;2023-06-10T07:57:22;24.60;99.90
46676;DHT22;32412;51.478;5.694;2023-06-10T07:59:47;25.00;99.90
46676;DHT22;32412;51.478;5.694;2023-06-10T08:02:14;25.20;99.90
46676;DHT22;32412;51.478;5.694;2023-06-10T08:04:40;25.40;99.90
46676;DHT22;32412;51.478;5.694;2023-06-10T08:07:05;25.40;99.90
46676;DHT22;32412;51.478;5.694;2023-06-10T08:09:31;25.60;99.90
46676;DHT22;32412;51.478;5.694;2023-06-10T08:11:57;25.60;99.80
46676;DHT22;32412;51.478;5.694;2023-06-10T08:14:22;25.50;99.90
46676;DHT22;32412;51.478;5.694;2023-06-10T08:16:48;25.40;99.90
46676;DHT22;32412;51.478;5.694;2023-06-10T08:19:14;25.40;99.90
46676;DHT22;32412;51.478;5.694;2023-06-10T08:21:39;25.70;99.90
46676;DHT22;32412;51.478;5.694;2023-06-10T08:24:09;25.90;99.60
46676;DHT22;32412;51.478;5.694;2023-06-10T08:26:35;26.00;99.00
46676;DHT22;32412;51.478;5.694;2023-06-10T08:29:01;26.00;98.80
46676;DHT22;32412;51.478;5.694;2023-06-10T08:31:26;26.10;99.20
46676;DHT22;32412;51.478;5.694;2023-06-10T08:33:52;26.10;98.50
46676;DHT22;32412;51.478;5.694;2023-06-10T08:36:17;26.30;98.40
46676;DHT22;32412;51.478;5.694;2023-06-10T08:38:43;26.40;98.10
46676;DHT22;32412;51.478;5.694;2023-06-10T08:41:09;26.70;98.20
46676;DHT22;32412;51.478;5.694;2023-06-10T08:44:44;26.80;97.50
46676;DHT22;32412;51.478;5.694;2023-06-10T08:46:46;26.80;97.00
46676;DHT22;32412;51.478;5.694;2023-06-10T08:49:18;26.90;97.40
46676;DHT22;32412;51.478;5.694;2023-06-10T08:51:49;27.10;97.10
46676;DHT22;32412;51.478;5.694;2023-06-10T08:54:18;27.20;96.80
46676;DHT22;32412;51.478;5.694;2023-06-10T08:56:48;27.40;96.60
46676;DHT22;32412;51.478;5.694;2023-06-10T08:59:15;27.60;96.40
46676;DHT22;32412;51.478;5.694;2023-06-10T09:01:45;27.70;96.10
46676;DHT22;32412;51.478;5.694;2023-06-10T09:04:11;27.60;95.50
46676;DHT22;32412;51.478;5.694;2023-06-10T09:06:37;27.70;95.80
46676;DHT22;32412;51.478;5.694;2023-06-10T09:09:06;27.70;96.00
46676;DHT22;32412;51.478;5.694;2023-06-10T09:11:32;27.90;95.80
46676;DHT22;32412;51.478;5.694;2023-06-10T09:13:58;28.20;95.70
46676;DHT22;32412;51.478;5.694;2023-06-10T09:16:25;28.40;95.00
46676;DHT22;32412;51.478;5.694;2023-06-10T09:18:51;28.40;95.40
46676;DHT22;32412;51.478;5.694;2023-06-10T09:21:24;28.50;94.90
46676;DHT22;32412;51.478;5.694;2023-06-10T09:23:50;28.60;94.80
46676;DHT22;32412;51.478;5.694;2023-06-10T09:26:16;28.60;94.40
46676;DHT22;32412;51.478;5.694;2023-06-10T09:28:49;28.80;94.90
46676;DHT22;32412;51.478;5.694;2023-06-10T09:31:17;29.10;94.80
46676;DHT22;32412;51.478;5.694;2023-06-10T09:33:47;29.70;94.50
46676;DHT22;32412;51.478;5.694;2023-06-10T09:36:24;29.80;93.50
46676;DHT22;32412;51.478;5.694;2023-06-10T09:38:50;29.70;93.60
46676;DHT22;32412;51.478;5.694;2023-06-10T09:41:16;29.40;93.80
46676;DHT22;32412;51.478;5.694;2023-06-10T09:43:44;29.60;93.60
46676;DHT22;32412;51.478;5.694;2023-06-10T09:46:18;29.70;93.60
46676;DHT22;32412;51.478;5.694;2023-06-10T09:48:46;29.70;93.20
46676;DHT22;32412;51.478;5.694;2023-06-10T09:51:13;29.90;93.00
46676;DHT22;32412;51.478;5.694;2023-06-10T09:53:39;30.30;92.60
46676;DHT22;32412;51.478;5.694;2023-06-10T09:56:04;30.40;92.60
46676;DHT22;32412;51.478;5.694;2023-06-10T09:58:38;30.30;92.60
46676;DHT22;32412;51.478;5.694;2023-06-10T10:01:15;30.90;92.60
46676;DHT22;32412;51.478;5.694;2023-06-10T10:03:59;31.30;92.20
46676;DHT22;32412;51.478;5.694;2023-06-10T10:06:26;31.90;91.90
46676;DHT22;32412;51.478;5.694;2023-06-10T10:08:52;32.10;91.60
46676;DHT22;32412;51.478;5.694;2023-06-10T10:11:19;32.70;91.20
46676;DHT22;32412;51.478;5.694;2023-06-10T10:13:49;32.90;90.60
46676;DHT22;32412;51.478;5.694;2023-06-10T10:16:18;32.70;90.10
46676;DHT22;32412;51.478;5.694;2023-06-10T10:18:56;33.10;90.20
46676;DHT22;32412;51.478;5.694;2023-06-10T10:21:32;33.90;89.80
46676;DHT22;32412;51.478;5.694;2023-06-10T10:24:18;34.40;88.50
46676;DHT22;32412;51.478;5.694;2023-06-10T10:26:47;34.00;87.60
46676;DHT22;32412;51.478;5.694;2023-06-10T10:29:33;34.40;87.60
46676;DHT22;32412;51.478;5.694;2023-06-10T10:32:01;34.70;88.00
46676;DHT22;32412;51.478;5.694;2023-06-10T10:37:23;34.80;85.10
46676;DHT22;32412;51.478;5.694;2023-06-10T10:39:48;34.20;86.30
46676;DHT22;32412;51.478;5.694;2023-06-10T10:42:16;34.20;86.70
46676;DHT22;32412;51.478;5.694;2023-06-10T10:44:42;34.20;86.50
46676;DHT22;32412;51.478;5.694;2023-06-10T10:47:09;34.10;85.40
46676;DHT22;32412;51.478;5.694;2023-06-10T10:49:35;34.50;85.60
46676;DHT22;32412;51.478;5.694;2023-06-10T10:52:03;34.40;85.10
46676;DHT22;32412;51.478;5.694;2023-06-10T10:54:36;35.10;84.80
46676;DHT22;32412;51.478;5.694;2023-06-10T11:02:41;35.50;82.60
46676;DHT22;32412;51.478;5.694;2023-06-10T11:05:17;35.50;83.40
46676;DHT22;32412;51.478;5.694;2023-06-10T11:07:55;36.30;82.80
46676;DHT22;32412;51.478;5.694;2023-06-10T11:10:36;36.70;81.60
46676;DHT22;32412;51.478;5.694;2023-06-10T11:13:15;35.90;80.60
46676;DHT22;32412;51.478;5.694;2023-06-10T11:15:45;35.60;81.80
46676;DHT22;32412;51.478;5.694;2023-06-10T11:18:25;36.00;82.70
46676;DHT22;32412;51.478;5.694;2023-06-10T11:20:59;36.80;79.60
46676;DHT22;32412;51.478;5.694;2023-06-10T11:28:41;37.10;80.00
46676;DHT22;32412;51.478;5.694;2023-06-10T11:31:18;37.30;78.80
46676;DHT22;32412;51.478;5.694;2023-06-10T11:33:52;37.20;76.40
46676;DHT22;32412;51.478;5.694;2023-06-10T11:36:17;37.10;76.70
46676;DHT22;32412;51.478;5.694;2023-06-10T11:38:43;37.40;76.80
46676;DHT22;32412;51.478;5.694;2023-06-10T11:41:11;37.30;77.10
46676;DHT22;32412;51.478;5.694;2023-06-10T11:43:42;37.30;77.40
46676;DHT22;32412;51.478;5.694;2023-06-10T11:46:09;37.40;76.00
46676;DHT22;32412;51.478;5.694;2023-06-10T11:48:35;36.30;76.30
46676;DHT22;32412;51.478;5.694;2023-06-10T11:51:00;35.50;77.00
46676;DHT22;32412;51.478;5.694;2023-06-10T11:53:29;36.10;78.10
46676;DHT22;32412;51.478;5.694;2023-06-10T11:55:54;36.80;76.50
46676;DHT22;32412;51.478;5.694;2023-06-10T11:58:21;37.20;76.20
46676;DHT22;32412;51.478;5.694;2023-06-10T12:00:48;37.10;76.30
46676;DHT22;32412;51.478;5.694;2023-06-10T12:03:15;36.90;75.10
46676;DHT22;32412;51.478;5.694;2023-06-10T12:05:53;36.90;74.90
46676;DHT22;32412;51.478;5.694;2023-06-10T12:08:19;36.80;74.70
46676;DHT22;32412;51.478;5.694;2023-06-10T12:10:44;37.30;74.90
46676;DHT22;32412;51.478;5.694;2023-06-10T12:13:10;37.70;75.70
46676;DHT22;32412;51.478;5.694;2023-06-10T12:15:37;37.40;74.30
46676;DHT22;32412;51.478;5.694;2023-06-10T12:18:03;37.10;74.00
46676;DHT22;32412;51.478;5.694;2023-06-10T12:20:32;37.60;73.90
46676;DHT22;32412;51.478;5.694;2023-06-10T12:22:59;37.80;73.50
46676;DHT22;32412;51.478;5.694;2023-06-10T12:25:29;38.00;72.50
46676;DHT22;32412;51.478;5.694;2023-06-10T12:27:56;38.00;71.70
46676;DHT22;32412;51.478;5.694;2023-06-10T12:30:24;38.20;71.80
46676;DHT22;32412;51.478;5.694;2023-06-10T12:32:52;38.30;71.30
46676;DHT22;32412;51.478;5.694;2023-06-10T12:35:25;38.10;72.20
46676;DHT22;32412;51.478;5.694;2023-06-10T12:38:04;38.60;71.90
46676;DHT22;32412;51.478;5.694;2023-06-10T12:40:42;38.20;71.70
46676;DHT22;32412;51.478;5.694;2023-06-10T12:43:09;38.60;71.70
46676;DHT22;32412;51.478;5.694;2023-06-10T12:45:39;37.60;71.30
46676;DHT22;32412;51.478;5.694;2023-06-10T12:48:09;37.60;71.90
46676;DHT22;32412;51.478;5.694;2023-06-10T12:50:40;37.70;71.40
46676;DHT22;32412;51.478;5.694;2023-06-10T12:53:06;36.90;71.30
46676;DHT22;32412;51.478;5.694;2023-06-10T12:55:33;35.30;72.50
46676;DHT22;32412;51.478;5.694;2023-06-10T12:57:59;35.40;72.40
46676;DHT22;32412;51.478;5.694;2023-06-10T13:00:25;35.40;72.50
46676;DHT22;32412;51.478;5.694;2023-06-10T13:02:53;36.10;73.10
46676;DHT22;32412;51.478;5.694;2023-06-10T13:05:19;36.60;72.60
46676;DHT22;32412;51.478;5.694;2023-06-10T13:07:46;37.10;72.60
46676;DHT22;32412;51.478;5.694;2023-06-10T13:10:16;35.90;72.20
46676;DHT22;32412;51.478;5.694;2023-06-10T13:12:43;35.70;71.90
46676;DHT22;32412;51.478;5.694;2023-06-10T13:15:09;35.80;71.20
46676;DHT22;32412;51.478;5.694;2023-06-10T13:17:35;34.80;70.60
46676;DHT22;32412;51.478;5.694;2023-06-10T13:20:05;34.30;72.00
46676;DHT22;32412;51.478;5.694;2023-06-10T13:22:32;34.00;73.30
46676;DHT22;32412;51.478;5.694;2023-06-10T13:25:04;34.00;73.40
46676;DHT22;32412;51.478;5.694;2023-06-10T13:27:32;33.40;72.60
46676;DHT22;32412;51.478;5.694;2023-06-10T13:29:58;32.90;73.10
46676;DHT22;32412;51.478;5.694;2023-06-10T13:32:23;32.30;73.00
46676;DHT22;32412;51.478;5.694;2023-06-10T13:34:49;31.70;75.00
46676;DHT22;32412;51.478;5.694;2023-06-10T13:37:15;31.70;73.80
46676;DHT22;32412;51.478;5.694;2023-06-10T13:39:43;31.60;73.20
46676;DHT22;32412;51.478;5.694;2023-06-10T13:42:09;31.60;73.50
46676;DHT22;32412;51.478;5.694;2023-06-10T13:44:35;31.80;75.40
46676;DHT22;32412;51.478;5.694;2023-06-10T13:47:04;31.60;74.90
46676;DHT22;32412;51.478;5.694;2023-06-10T13:49:30;31.60;75.20
46676;DHT22;32412;51.478;5.694;2023-06-10T13:51:56;31.60;72.40
46676;DHT22;32412;51.478;5.694;2023-06-10T13:54:22;31.70;71.10
46676;DHT22;32412;51.478;5.694;2023-06-10T13:56:48;31.60;73.30
46676;DHT22;32412;51.478;5.694;2023-06-10T13:59:13;31.60;74.10
46676;DHT22;32412;51.478;5.694;2023-06-10T14:01:39;31.60;74.00
46676;DHT22;32412;51.478;5.694;2023-06-10T14:04:06;31.70;73.60
46676;DHT22;32412;51.478;5.694;2023-06-10T14:06:32;31.60;74.00
46676;DHT22;32412;51.478;5.694;2023-06-10T14:09:01;31.50;74.10
46676;DHT22;32412;51.478;5.694;2023-06-10T14:11:27;31.70;73.80
46676;DHT22;32412;51.478;5.694;2023-06-10T14:13:52;31.60;74.30
46676;DHT22;32412;51.478;5.694;2023-06-10T14:16:18;31.50;74.90
46676;DHT22;32412;51.478;5.694;2023-06-10T14:18:44;31.20;74.70
46676;DHT22;32412;51.478;5.694;2023-06-10T14:21:10;31.20;75.30
46676;DHT22;32412;51.478;5.694;2023-06-10T14:23:35;31.10;74.20
46676;DHT22;32412;51.478;5.694;2023-06-10T14:26:01;31.20;75.50
46676;DHT22;32412;51.478;5.694;2023-06-10T14:28:28;31.20;74.30
46676;DHT22;32412;51.478;5.694;2023-06-10T14:30:54;31.20;75.20
46676;DHT22;32412;51.478;5.694;2023-06-10T14:33:20;31.30;74.90
46676;DHT22;32412;51.478;5.694;2023-06-10T14:35:46;31.40;75.60
46676;DHT22;32412;51.478;5.694;2023-06-10T14:38:11;31.10;74.00
46676;DHT22;32412;51.478;5.694;2023-06-10T14:40:37;31.10;75.00
46676;DHT22;32412;51.478;5.694;2023-06-10T14:43:03;31.00;75.80
46676;DHT22;32412;51.478;5.694;2023-06-10T14:45:38;31.00;75.20
46676;DHT22;32412;51.478;5.694;2023-06-10T14:48:04;30.90;75.40
46676;DHT22;32412;51.478;5.694;2023-06-10T14:50:30;31.00;75.30
46676;DHT22;32412;51.478;5.694;2023-06-10T14:52:55;31.20;76.30
46676;DHT22;32412;51.478;5.694;2023-06-10T14:55:21;31.30;75.00
46676;DHT22;32412;51.478;5.694;2023-06-10T14:57:48;31.40;74.80
46676;DHT22;32412;51.478;5.694;2023-06-10T15:00:14;31.50;75.20
46676;DHT22;32412;51.478;5.694;2023-06-10T15:02:42;31.60;75.20
46676;DHT22;32412;51.478;5.694;2023-06-10T15:05:08;31.70;74.90
46676;DHT22;32412;51.478;5.694;2023-06-10T15:07:34;31.80;75.90
46676;DHT22;32412;51.478;5.694;2023-06-10T15:09:59;31.70;75.10
46676;DHT22;32412;51.478;5.694;2023-06-10T15:12:25;31.60;75.20
46676;DHT22;32412;51.478;5.694;2023-06-10T15:14:51;31.40;74.80
46676;DHT22;32412;51.478;5.694;2023-06-10T15:17:16;31.20;75.90
46676;DHT22;32412;51.478;5.694;2023-06-10T15:19:42;31.10;76.00
46676;DHT22;32412;51.478;5.694;2023-06-10T15:22:08;31.20;77.00
46676;DHT22;32412;51.478;5.694;2023-06-10T15:24:33;31.40;76.70
46676;DHT22;32412;51.478;5.694;2023-06-10T15:26:59;31.60;76.30
46676;DHT22;32412;51.478;5.694;2023-06-10T15:29:25;31.70;77.40
46676;DHT22;32412;51.478;5.694;2023-06-10T15:31:50;31.50;76.10
46676;DHT22;32412;51.478;5.694;2023-06-10T15:34:16;31.30;76.40
46676;DHT22;32412;51.478;5.694;2023-06-10T15:36:41;31.20;76.30
46676;DHT22;32412;51.478;5.694;2023-06-10T15:39:07;30.90;77.20
46676;DHT22;32412;51.478;5.694;2023-06-10T15:41:34;30.80;76.90
46676;DHT22;32412;51.478;5.694;2023-06-10T15:44:00;30.70;76.70
46676;DHT22;32412;51.478;5.694;2023-06-10T15:46:27;30.60;77.50